createdAt,value
2023-05-10T00:01:45.606Z,100778.47
2023-05-10T00:04:12.709Z,100780.97
2023-05-10T00:06:39.771Z,100774.13
2023-05-10T00:09:06.965Z,100772.81
2023-05-10T00:11:34.033Z,100771.94
2023-05-10T00:14:01.045Z,100771.31
2023-05-10T00:16:28.275Z,100770.00
2023-05-10T00:18:55.399Z,100754.81
2023-05-10T00:21:22.387Z,100762.34
2023-05-10T00:23:49.327Z,100761.19
2023-05-10T00:26:17.746Z,100767.59
2023-05-10T00:28:44.749Z,100768.34
2023-05-10T00:31:11.809Z,100760.69
2023-05-10T00:33:38.755Z,100755.13
2023-05-10T00:36:08.575Z,100750.16
2023-05-10T00:38:35.604Z,100756.03
2023-05-10T00:41:02.640Z,100756.00
2023-05-10T00:43:29.662Z,100748.16
2023-05-10T00:45:56.919Z,100754.25
2023-05-10T00:48:24.191Z,100746.97
2023-05-10T00:50:51.450Z,100754.25
2023-05-10T00:53:19.029Z,100749.06
2023-05-10T00:55:46.135Z,100748.69
2023-05-10T00:58:13.439Z,100750.41
2023-05-10T01:00:43.166Z,100754.31
2023-05-10T01:03:12.517Z,100749.09
2023-05-10T01:05:39.860Z,100741.09
2023-05-10T01:08:07.511Z,100740.41
2023-05-10T01:10:34.646Z,100744.25
2023-05-10T01:13:01.861Z,100734.72
2023-05-10T01:15:29.242Z,100740.59
2023-05-10T01:17:57.534Z,100725.97
2023-05-10T01:20:25.840Z,100737.78
2023-05-10T01:23:20.191Z,100730.28
2023-05-10T01:26:14.580Z,100728.00
2023-05-10T01:28:50.629Z,100733.69
2023-05-10T01:31:55.121Z,100731.16
2023-05-10T01:34:28.646Z,100737.38
2023-05-10T01:37:10.574Z,100735.81
2023-05-10T01:40:04.138Z,100735.09
2023-05-10T01:42:40.281Z,100724.81
2023-05-10T01:45:17.457Z,100730.88
2023-05-10T01:48:06.891Z,100726.81
2023-05-10T01:50:36.677Z,100729.91
2023-05-10T01:53:07.024Z,100721.63
2023-05-10T01:55:41.207Z,100723.28
2023-05-10T01:58:11.476Z,100728.09
2023-05-10T02:00:43.944Z,100719.25
2023-05-10T02:03:12.791Z,100719.38
2023-05-10T02:05:42.478Z,100719.63
2023-05-10T02:08:10.889Z,100717.34
2023-05-10T02:10:40.123Z,100720.44
2023-05-10T02:13:09.498Z,100719.09
2023-05-10T02:15:39.826Z,100714.13
2023-05-10T02:18:08.035Z,100707.81
2023-05-10T02:20:36.325Z,100717.31
2023-05-10T02:23:04.811Z,100709.88
2023-05-10T02:25:33.841Z,100712.84
2023-05-10T02:28:04.125Z,100713.28
2023-05-10T02:30:33.633Z,100724.97
2023-05-10T02:33:01.382Z,100721.06
2023-05-10T02:35:29.302Z,100718.41
2023-05-10T02:37:59.108Z,100716.25
2023-05-10T02:40:28.933Z,100716.69
2023-05-10T02:42:58.155Z,100715.56
2023-05-10T02:45:31.450Z,100710.72
2023-05-10T02:47:59.575Z,100722.03
2023-05-10T02:50:29.397Z,100714.75
2023-05-10T02:53:05.127Z,100713.75
2023-05-10T02:55:37.445Z,100714.56
2023-05-10T02:58:04.921Z,100720.00
2023-05-10T03:00:32.714Z,100719.00
2023-05-10T03:03:00.039Z,100713.53
2023-05-10T03:05:27.092Z,100715.66
2023-05-10T03:07:55.490Z,100710.31
2023-05-10T03:10:29.719Z,100714.28
2023-05-10T03:13:15.485Z,100722.19
2023-05-10T03:16:08.941Z,100726.97
2023-05-10T03:19:13.209Z,100723.09
2023-05-10T03:21:43.294Z,100720.75
2023-05-10T03:24:13.494Z,100718.75
2023-05-10T03:26:43.262Z,100718.56
2023-05-10T03:29:11.452Z,100719.31
2023-05-10T03:31:39.785Z,100716.19
2023-05-10T03:34:07.418Z,100714.13
2023-05-10T03:36:34.603Z,100712.00
2023-05-10T03:39:01.677Z,100714.06
2023-05-10T03:41:29.719Z,100713.25
2023-05-10T03:43:56.726Z,100717.19
2023-05-10T03:46:23.729Z,100714.97
2023-05-10T03:48:50.726Z,100714.13
2023-05-10T03:51:17.717Z,100706.66
2023-05-10T03:53:44.679Z,100701.47
2023-05-10T03:56:11.670Z,100711.75
2023-05-10T03:58:38.878Z,100711.47
2023-05-10T04:01:05.990Z,100715.81
2023-05-10T04:03:33.149Z,100714.19
2023-05-10T04:06:03.878Z,100710.53
2023-05-10T04:08:31.042Z,100711.06
2023-05-10T04:11:10.868Z,100711.25
2023-05-10T04:13:38.373Z,100708.00
2023-05-10T04:16:06.018Z,100709.69
2023-05-10T04:18:33.146Z,100710.00
2023-05-10T04:21:00.255Z,100713.53
2023-05-10T04:23:28.870Z,100720.09
2023-05-10T04:26:02.370Z,100721.22
2023-05-10T04:28:29.320Z,100718.03
2023-05-10T04:31:06.499Z,100718.84
2023-05-10T04:33:34.323Z,100715.75
2023-05-10T04:36:01.876Z,100713.09
2023-05-10T04:38:29.283Z,100725.00
2023-05-10T04:41:05.150Z,100717.13
2023-05-10T04:43:32.077Z,100726.13
2023-05-10T04:45:59.187Z,100719.81
2023-05-10T04:48:26.214Z,100728.25
2023-05-10T04:50:53.148Z,100729.94
2023-05-10T04:53:20.145Z,100734.84
2023-05-10T04:55:47.867Z,100737.22
2023-05-10T04:58:15.131Z,100739.91
2023-05-10T05:00:42.792Z,100741.56
2023-05-10T05:03:09.885Z,100762.22
2023-05-10T05:05:36.940Z,100764.31
2023-05-10T05:08:04.219Z,100768.94
2023-05-10T05:10:31.519Z,100763.47
2023-05-10T05:12:58.520Z,100759.66
2023-05-10T05:15:25.589Z,100770.50
2023-05-10T05:17:52.922Z,100768.25
2023-05-10T05:20:20.171Z,100761.63
2023-05-10T05:22:47.085Z,100759.41
2023-05-10T05:25:14.165Z,100769.09
2023-05-10T05:27:41.179Z,100770.06
2023-05-10T05:30:08.944Z,100772.88
2023-05-10T05:32:36.074Z,100770.63
2023-05-10T05:35:03.055Z,100773.88
2023-05-10T05:37:30.017Z,100771.19
2023-05-10T05:39:57.033Z,100767.97
2023-05-10T05:42:24.030Z,100781.56
2023-05-10T05:44:51.066Z,100782.41
2023-05-10T05:47:18.615Z,100774.84
2023-05-10T05:49:47.011Z,100774.41
2023-05-10T05:52:13.997Z,100776.75
2023-05-10T05:54:41.056Z,100778.66
2023-05-10T05:57:08.622Z,100783.31
2023-05-10T05:59:35.648Z,100784.72
2023-05-10T06:02:02.670Z,100789.25
2023-05-10T06:04:29.718Z,100796.84
2023-05-10T06:06:56.753Z,100800.91
2023-05-10T06:09:25.642Z,100804.03
2023-05-10T06:11:52.590Z,100796.16
2023-05-10T06:14:22.061Z,100806.69
2023-05-10T06:16:49.029Z,100815.00
2023-05-10T06:19:16.136Z,100813.25
2023-05-10T06:21:43.100Z,100816.06
2023-05-10T06:24:10.064Z,100820.13
2023-05-10T06:26:37.334Z,100814.97
2023-05-10T06:29:04.363Z,100816.09
2023-05-10T06:31:31.422Z,100813.06
2023-05-10T06:33:58.938Z,100817.31
2023-05-10T06:36:27.493Z,100831.41
2023-05-10T06:38:54.520Z,100835.38
2023-05-10T06:41:24.639Z,100824.78
2023-05-10T06:43:51.913Z,100832.63
2023-05-10T06:46:18.928Z,100841.81
2023-05-10T06:48:45.902Z,100840.81
2023-05-10T06:51:12.962Z,100838.06
2023-05-10T06:53:39.929Z,100837.53
2023-05-10T06:56:06.917Z,100838.94
2023-05-10T06:58:33.917Z,100837.84
2023-05-10T07:01:05.475Z,100836.84
2023-05-10T07:03:33.309Z,100847.63
2023-05-10T07:06:04.869Z,100852.84
2023-05-10T07:08:33.110Z,100857.19
2023-05-10T07:11:05.098Z,100854.56
2023-05-10T07:13:33.147Z,100860.59
2023-05-10T07:16:01.665Z,100859.78
2023-05-10T07:18:28.891Z,100867.19
2023-05-10T07:20:56.268Z,100880.25
2023-05-10T07:23:23.236Z,100877.72
2023-05-10T07:25:52.586Z,100873.25
2023-05-10T07:28:19.806Z,100879.72
2023-05-10T07:30:47.613Z,100880.53
2023-05-10T07:33:15.824Z,100886.56
2023-05-10T07:35:43.726Z,100880.28
2023-05-10T07:38:12.237Z,100878.72
2023-05-10T07:40:40.446Z,100889.09
2023-05-10T07:43:07.556Z,100890.63
2023-05-10T07:45:35.089Z,100890.38
2023-05-10T07:48:02.201Z,100893.47
2023-05-10T07:50:29.387Z,100886.72
2023-05-10T07:52:56.364Z,100887.56
2023-05-10T07:55:23.435Z,100889.94
2023-05-10T07:57:50.456Z,100893.47
2023-05-10T08:00:21.428Z,100893.03
2023-05-10T08:02:48.992Z,100902.44
2023-05-10T08:05:16.620Z,100904.22
2023-05-10T08:07:43.761Z,100905.44
2023-05-10T08:10:12.304Z,100909.66
2023-05-10T08:12:39.609Z,100900.47
2023-05-10T08:15:07.794Z,100900.91
2023-05-10T08:17:34.892Z,100912.47
2023-05-10T08:20:02.467Z,100910.34
2023-05-10T08:22:29.587Z,100911.22
2023-05-10T08:24:56.543Z,100913.44
2023-05-10T08:27:23.562Z,100912.06
2023-05-10T08:29:50.810Z,100911.44
2023-05-10T08:32:18.638Z,100917.09
2023-05-10T08:34:45.674Z,100916.66
2023-05-10T08:37:14.619Z,100907.09
2023-05-10T08:39:41.946Z,100917.16
2023-05-10T08:42:10.423Z,100913.78
2023-05-10T08:44:37.953Z,100916.34
2023-05-10T08:47:08.690Z,100917.88
2023-05-10T08:49:36.323Z,100919.44
2023-05-10T08:52:05.549Z,100919.19
2023-05-10T08:54:33.648Z,100923.97
2023-05-10T08:57:01.098Z,100926.16
2023-05-10T08:59:28.666Z,100932.53
2023-05-10T09:02:02.252Z,100935.19
2023-05-10T09:04:31.016Z,100930.22
2023-05-10T09:06:58.503Z,100939.88
2023-05-10T09:09:26.902Z,100947.97
2023-05-10T09:11:55.010Z,100940.47
2023-05-10T09:14:23.245Z,100954.97
2023-05-10T09:16:50.630Z,100958.19
2023-05-10T09:19:17.617Z,100950.97
2023-05-10T09:21:44.636Z,100953.72
2023-05-10T09:24:11.590Z,100955.88
2023-05-10T09:26:49.114Z,100956.63
2023-05-10T09:29:17.728Z,100959.75
2023-05-10T09:31:48.005Z,100958.44
2023-05-10T09:34:24.041Z,100962.03
2023-05-10T09:37:04.008Z,100970.56
2023-05-10T09:39:33.176Z,100974.25
2023-05-10T09:42:05.612Z,100971.94
2023-05-10T09:44:35.907Z,100975.25
2023-05-10T09:47:03.912Z,100968.31
2023-05-10T09:49:31.321Z,100969.03
2023-05-10T09:52:03.865Z,100969.56
2023-05-10T09:54:31.510Z,100977.69
2023-05-10T09:56:58.710Z,100980.19
2023-05-10T09:59:30.267Z,100984.63
2023-05-10T10:01:59.369Z,100985.75
2023-05-10T10:04:26.915Z,100986.44
2023-05-10T10:07:04.876Z,100981.72
2023-05-10T10:09:33.741Z,100979.53
2023-05-10T10:12:01.956Z,100986.69
2023-05-10T10:14:30.294Z,100988.41
2023-05-10T10:17:07.418Z,100994.34
2023-05-10T10:19:37.203Z,100999.97
2023-05-10T10:22:04.639Z,101005.44
2023-05-10T10:24:31.686Z,100999.88
2023-05-10T10:27:09.023Z,100994.44
2023-05-10T10:29:59.448Z,100995.06
2023-05-10T10:32:56.537Z,101000.38
2023-05-10T10:35:23.870Z,100992.88
2023-05-10T10:37:52.209Z,100996.13
2023-05-10T10:40:31.900Z,100995.94
2023-05-10T10:43:27.063Z,100988.41
2023-05-10T10:46:18.430Z,100995.16
2023-05-10T10:48:52.473Z,100991.69
2023-05-10T10:51:19.519Z,100996.81
2023-05-10T10:53:49.244Z,100990.66
2023-05-10T10:56:16.690Z,100986.09
2023-05-10T10:58:52.458Z,100989.34
2023-05-10T11:01:20.410Z,100996.09
2023-05-10T11:03:59.723Z,100997.56
2023-05-10T11:06:32.845Z,101005.53
2023-05-10T11:09:00.752Z,100999.56
2023-05-10T11:11:27.992Z,100997.13
2023-05-10T11:14:04.786Z,101004.63
2023-05-10T11:16:45.226Z,101006.72
2023-05-10T11:19:13.797Z,101010.53
2023-05-10T11:22:07.013Z,101008.69
2023-05-10T11:24:34.597Z,101007.56
2023-05-10T11:27:02.124Z,101010.91
2023-05-10T11:29:29.263Z,101011.81
2023-05-10T11:31:59.593Z,101013.84
2023-05-10T11:34:28.974Z,101013.59
2023-05-10T11:36:57.362Z,101010.16
2023-05-10T11:39:29.264Z,101023.03
2023-05-10T11:41:56.901Z,101022.00
2023-05-10T11:44:24.411Z,101019.31
2023-05-10T11:46:51.633Z,101025.06
2023-05-10T11:49:19.069Z,101035.56
2023-05-10T11:51:46.115Z,101049.94
2023-05-10T11:54:13.187Z,101052.44
2023-05-10T11:56:41.393Z,101056.25
2023-05-10T11:59:09.374Z,101053.94
2023-05-10T12:01:37.143Z,101056.59
2023-05-10T12:04:04.640Z,101059.63
2023-05-10T12:06:34.304Z,101063.03
2023-05-10T12:09:08.255Z,101066.69
2023-05-10T12:11:40.543Z,101068.22
2023-05-10T12:14:09.973Z,101067.03
2023-05-10T12:16:37.092Z,101067.34
2023-05-10T12:19:04.274Z,101061.88
2023-05-10T12:21:34.519Z,101070.19
2023-05-10T12:24:04.926Z,101082.34
2023-05-10T12:26:33.866Z,101079.31
2023-05-10T12:29:17.499Z,101085.25
2023-05-10T12:31:52.339Z,101078.41
2023-05-10T12:34:32.535Z,101081.69
2023-05-10T12:37:00.006Z,101084.81
2023-05-10T12:39:27.468Z,101084.38
2023-05-10T12:41:54.522Z,101093.69
2023-05-10T12:44:21.662Z,101091.97
2023-05-10T12:46:48.853Z,101103.78
2023-05-10T12:49:15.963Z,101116.53
2023-05-10T12:51:42.955Z,101104.38
2023-05-10T12:54:10.044Z,101108.03
2023-05-10T12:56:38.160Z,101112.44
2023-05-10T12:59:05.485Z,101115.66
2023-05-10T13:01:32.502Z,101117.78
2023-05-10T13:04:01.226Z,101117.88
2023-05-10T13:06:28.191Z,101130.06
2023-05-10T13:08:55.172Z,101129.53
2023-05-10T13:11:22.754Z,101118.25
2023-05-10T13:13:49.784Z,101125.88
2023-05-10T13:16:16.876Z,101131.81
2023-05-10T13:18:44.002Z,101136.44
2023-05-10T13:21:11.139Z,101133.81
2023-05-10T13:23:38.134Z,101137.94
2023-05-10T13:26:05.085Z,101135.28
2023-05-10T13:28:32.089Z,101139.50
2023-05-10T13:31:01.079Z,101142.56
2023-05-10T13:33:28.124Z,101139.00
2023-05-10T13:35:55.856Z,101144.22
2023-05-10T13:38:23.059Z,101138.97
2023-05-10T13:40:53.730Z,101146.28
2023-05-10T13:43:21.161Z,101158.84
2023-05-10T13:45:48.230Z,101156.59
2023-05-10T13:48:15.215Z,101151.50
2023-05-10T13:50:42.252Z,101165.38
2023-05-10T13:53:09.190Z,101160.13
2023-05-10T13:55:36.989Z,101167.03
2023-05-10T13:58:03.936Z,101166.31
2023-05-10T14:00:31.112Z,101160.13
2023-05-10T14:02:58.172Z,101167.50
2023-05-10T14:05:26.440Z,101166.22
2023-05-10T14:07:53.765Z,101165.81
2023-05-10T14:10:21.176Z,101164.09
2023-05-10T14:12:48.272Z,101165.53
2023-05-10T14:15:15.589Z,101168.81
2023-05-10T14:17:42.837Z,101161.75
2023-05-10T14:20:10.290Z,101166.28
2023-05-10T14:22:37.283Z,101164.75
2023-05-10T14:25:04.563Z,101165.31
2023-05-10T14:27:31.638Z,101171.72
2023-05-10T14:29:58.719Z,101166.38
2023-05-10T14:32:25.975Z,101169.50
2023-05-10T14:34:52.988Z,101163.78
2023-05-10T14:37:19.967Z,101170.19
2023-05-10T14:39:47.013Z,101160.84
2023-05-10T14:42:14.009Z,101163.25
2023-05-10T14:44:41.004Z,101165.19
2023-05-10T14:47:08.953Z,101172.16
2023-05-10T14:49:38.297Z,101172.53
2023-05-10T14:52:05.308Z,101172.13
2023-05-10T14:54:34.538Z,101168.97
2023-05-10T14:57:01.823Z,101170.03
2023-05-10T14:59:28.926Z,101175.09
2023-05-10T15:01:56.753Z,101176.69
2023-05-10T15:04:24.739Z,101179.63
2023-05-10T15:06:53.322Z,101181.16
2023-05-10T15:09:20.294Z,101181.50
2023-05-10T15:11:47.236Z,101185.19
2023-05-10T15:14:14.188Z,101184.41
2023-05-10T15:16:41.293Z,101189.50
2023-05-10T15:19:08.400Z,101184.06
2023-05-10T15:21:39.994Z,101183.38
2023-05-10T15:24:07.189Z,101192.25
2023-05-10T15:26:34.382Z,101193.97
2023-05-10T15:29:01.385Z,101200.44
2023-05-10T15:31:28.552Z,101202.81
2023-05-10T15:34:01.920Z,101204.91
2023-05-10T15:36:29.176Z,101206.31
2023-05-10T15:38:56.972Z,101201.88
2023-05-10T15:41:24.766Z,101201.91
2023-05-10T15:43:51.959Z,101206.25
2023-05-10T15:46:18.915Z,101214.81
2023-05-10T15:48:45.931Z,101219.94
2023-05-10T15:51:12.953Z,101221.47
2023-05-10T15:53:46.649Z,101226.19
2023-05-10T15:56:20.047Z,101224.75
2023-05-10T15:58:47.172Z,101227.34
2023-05-10T16:01:14.379Z,101231.31
2023-05-10T16:03:41.501Z,101237.50
2023-05-10T16:06:08.580Z,101241.47
2023-05-10T16:08:35.644Z,101239.66
2023-05-10T16:11:03.229Z,101243.56
2023-05-10T16:13:30.359Z,101248.25
2023-05-10T16:16:00.527Z,101248.94
2023-05-10T16:18:27.676Z,101245.53
2023-05-10T16:20:54.847Z,101250.50
2023-05-10T16:23:21.841Z,101240.88
2023-05-10T16:25:48.820Z,101237.50
2023-05-10T16:28:15.807Z,101243.78
2023-05-10T16:30:42.754Z,101252.34
2023-05-10T16:33:09.737Z,101246.72
2023-05-10T16:35:36.725Z,101248.69
2023-05-10T16:38:04.187Z,101247.84
2023-05-10T16:40:31.567Z,101255.06
2023-05-10T16:42:58.762Z,101252.22
2023-05-10T16:45:26.898Z,101267.94
2023-05-10T16:47:54.107Z,101275.47
2023-05-10T16:50:21.396Z,101273.97
2023-05-10T16:52:48.383Z,101283.03
2023-05-10T16:55:15.616Z,101281.22
2023-05-10T16:57:42.799Z,101280.66
2023-05-10T17:00:12.038Z,101281.19
2023-05-10T17:02:39.585Z,101287.84
2023-05-10T17:05:06.871Z,101286.06
2023-05-10T17:07:33.951Z,101286.53
2023-05-10T17:10:00.960Z,101289.59
2023-05-10T17:12:28.181Z,101284.97
2023-05-10T17:14:55.187Z,101288.16
2023-05-10T17:17:22.313Z,101298.91
2023-05-10T17:19:49.317Z,101295.16
2023-05-10T17:22:16.287Z,101299.00
2023-05-10T17:24:43.524Z,101306.03
2023-05-10T17:27:10.495Z,101313.50
2023-05-10T17:29:37.712Z,101309.63
2023-05-10T17:32:04.945Z,101308.06
2023-05-10T17:34:31.956Z,101310.59
2023-05-10T17:36:58.953Z,101322.72
2023-05-10T17:39:26.024Z,101317.59
2023-05-10T17:41:53.053Z,101325.78
2023-05-10T17:44:20.198Z,101326.63
2023-05-10T17:46:47.832Z,101325.25
2023-05-10T17:49:15.427Z,101327.41
2023-05-10T17:51:44.234Z,101332.88
2023-05-10T17:54:11.184Z,101332.59
2023-05-10T17:56:38.174Z,101344.03
2023-05-10T17:59:05.592Z,101338.09
2023-05-10T18:01:32.974Z,101337.69
2023-05-10T18:04:00.005Z,101345.59
2023-05-10T18:06:26.997Z,101345.59
2023-05-10T18:08:54.019Z,101345.88
2023-05-10T18:11:21.983Z,101350.81
2023-05-10T18:13:48.978Z,101354.19
2023-05-10T18:16:16.079Z,101359.81
2023-05-10T18:18:43.107Z,101364.75
2023-05-10T18:21:10.062Z,101364.16
2023-05-10T18:23:37.330Z,101364.59
2023-05-10T18:26:04.426Z,101371.19
2023-05-10T18:28:31.445Z,101368.38
2023-05-10T18:30:58.494Z,101371.78
2023-05-10T18:33:25.679Z,101377.41
2023-05-10T18:35:52.716Z,101375.22
2023-05-10T18:38:20.007Z,101377.31
2023-05-10T18:40:46.997Z,101381.84
2023-05-10T18:43:14.093Z,101380.94
2023-05-10T18:45:41.232Z,101382.50
2023-05-10T18:48:08.330Z,101380.38
2023-05-10T18:50:35.342Z,101388.81
2023-05-10T18:53:03.294Z,101383.72
2023-05-10T18:55:30.483Z,101385.81
2023-05-10T18:57:57.505Z,101387.53
2023-05-10T19:00:24.724Z,101389.53
2023-05-10T19:02:51.947Z,101393.19
2023-05-10T19:05:19.468Z,101389.38
2023-05-10T19:07:47.115Z,101393.69
2023-05-10T19:10:14.196Z,101396.91
2023-05-10T19:12:43.943Z,101399.75
2023-05-10T19:15:11.888Z,101409.44
2023-05-10T19:17:41.049Z,101410.13
2023-05-10T19:20:09.495Z,101412.22
2023-05-10T19:22:54.344Z,101410.28
2023-05-10T19:25:29.656Z,101414.06
2023-05-10T19:27:59.691Z,101410.78
2023-05-10T19:30:27.204Z,101408.97
2023-05-10T19:32:54.492Z,101416.88
2023-05-10T19:35:21.552Z,101427.94
2023-05-10T19:37:49.867Z,101422.13
2023-05-10T19:40:17.583Z,101420.94
2023-05-10T19:42:44.606Z,101421.06
2023-05-10T19:45:12.393Z,101423.84
2023-05-10T19:47:39.484Z,101427.19
2023-05-10T19:50:07.584Z,101431.63
2023-05-10T19:52:34.667Z,101427.13
2023-05-10T19:55:01.630Z,101432.03
2023-05-10T19:57:29.122Z,101436.38
2023-05-10T19:59:56.281Z,101444.41
2023-05-10T20:02:23.409Z,101450.38
2023-05-10T20:04:50.570Z,101445.81
2023-05-10T20:07:17.555Z,101447.59
2023-05-10T20:09:44.632Z,101451.47
2023-05-10T20:12:11.624Z,101455.47
2023-05-10T20:14:38.658Z,101453.78
2023-05-10T20:17:05.948Z,101443.84
2023-05-10T20:19:33.000Z,101459.59
2023-05-10T20:22:00.040Z,101457.38
2023-05-10T20:24:27.026Z,101454.44
2023-05-10T20:26:53.927Z,101460.75
2023-05-10T20:29:20.977Z,101461.78
2023-05-10T20:31:47.942Z,101456.69
2023-05-10T20:34:14.952Z,101461.78
2023-05-10T20:36:42.181Z,101464.06
2023-05-10T20:39:09.828Z,101458.66
2023-05-10T20:41:36.797Z,101465.44
2023-05-10T20:44:05.683Z,101456.25
2023-05-10T20:46:33.845Z,101454.75
2023-05-10T20:49:00.962Z,101457.44
2023-05-10T20:51:30.168Z,101455.47
2023-05-10T20:53:57.992Z,101451.88
2023-05-10T20:56:25.073Z,101456.72
2023-05-10T20:58:52.066Z,101452.31
2023-05-10T21:01:19.149Z,101452.31
2023-05-10T21:03:46.239Z,101456.13
2023-05-10T21:06:13.206Z,101461.91
2023-05-10T21:08:40.163Z,101458.53
2023-05-10T21:11:07.173Z,101457.94
2023-05-10T21:13:34.229Z,101458.19
2023-05-10T21:16:01.270Z,101459.91
2023-05-10T21:18:28.693Z,101458.19
2023-05-10T21:20:55.840Z,101455.63
2023-05-10T21:23:22.992Z,101458.66
2023-05-10T21:25:49.968Z,101463.50
2023-05-10T21:28:16.985Z,101465.38
2023-05-10T21:30:43.974Z,101466.38
2023-05-10T21:33:11.494Z,101469.75
2023-05-10T21:35:42.813Z,101474.00
2023-05-10T21:38:10.061Z,101470.81
2023-05-10T21:40:37.078Z,101470.78
2023-05-10T21:43:04.070Z,101477.56
2023-05-10T21:45:33.078Z,101473.13
2023-05-10T21:48:00.703Z,101473.41
2023-05-10T21:50:27.746Z,101474.38
2023-05-10T21:52:55.712Z,101474.69
2023-05-10T21:55:22.950Z,101477.84
2023-05-10T21:57:51.073Z,101480.38
2023-05-10T22:00:19.435Z,101482.31
2023-05-10T22:02:47.111Z,101484.75
2023-05-10T22:05:14.237Z,101486.19
2023-05-10T22:07:41.266Z,101480.59
2023-05-10T22:10:09.772Z,101477.47
2023-05-10T22:12:36.847Z,101481.97
2023-05-10T22:17:34.418Z,101477.25
2023-05-10T22:20:01.392Z,101485.50
2023-05-10T22:22:28.642Z,101483.44
2023-05-10T22:24:55.646Z,101486.50
2023-05-10T22:27:22.666Z,101479.44
2023-05-10T22:29:49.636Z,101486.34
2023-05-10T22:32:16.718Z,101484.06
2023-05-10T22:34:43.713Z,101487.19
2023-05-10T22:37:13.857Z,101494.94
2023-05-10T22:39:40.877Z,101492.53
2023-05-10T22:42:08.230Z,101489.38
2023-05-10T22:44:35.237Z,101489.50
2023-05-10T22:47:02.269Z,101494.72
2023-05-10T22:49:29.370Z,101499.78
2023-05-10T22:51:56.316Z,101489.97
2023-05-10T22:54:23.268Z,101494.13
2023-05-10T22:56:50.951Z,101495.09
2023-05-10T22:59:17.998Z,101499.28
2023-05-10T23:01:45.047Z,101500.78
2023-05-10T23:04:12.623Z,101499.53
2023-05-10T23:06:39.791Z,101501.63
2023-05-10T23:09:06.783Z,101496.50
2023-05-10T23:11:33.793Z,101505.22
2023-05-10T23:14:00.827Z,101506.84
2023-05-10T23:16:27.828Z,101513.75
2023-05-10T23:18:55.103Z,101512.31
2023-05-10T23:21:22.177Z,101507.16
2023-05-10T23:23:49.545Z,101513.53
2023-05-10T23:26:16.512Z,101511.03
2023-05-10T23:28:43.449Z,101513.31
2023-05-10T23:31:10.433Z,101511.41
2023-05-10T23:33:37.432Z,101512.72
2023-05-10T23:36:04.608Z,101517.59
2023-05-10T23:38:31.612Z,101515.75
2023-05-10T23:40:58.604Z,101517.13
2023-05-10T23:43:25.693Z,101522.06
2023-05-10T23:45:57.158Z,101516.81
2023-05-10T23:48:24.726Z,101520.44
2023-05-10T23:50:51.920Z,101513.53
2023-05-10T23:53:19.220Z,101517.66
2023-05-10T23:55:46.285Z,101515.25
2023-05-10T23:58:13.285Z,101518.66
